createdAt,value
2024-03-10T00:00:18.236Z,22.00
2024-03-10T00:02:46.171Z,20.80
2024-03-10T00:05:14.568Z,20.75
2024-03-10T00:07:42.824Z,20.58
2024-03-10T00:10:11.435Z,22.15
2024-03-10T00:12:38.784Z,23.20
2024-03-10T00:15:06.556Z,22.13
2024-03-10T00:17:33.846Z,21.25
2024-03-10T00:20:01.309Z,20.50
2024-03-10T00:22:28.653Z,21.90
2024-03-10T00:24:55.941Z,21.25
2024-03-10T00:27:23.225Z,20.05
2024-03-10T00:29:50.642Z,20.13
2024-03-10T00:32:18.038Z,21.13
2024-03-10T00:34:45.374Z,20.23
2024-03-10T00:37:12.765Z,19.05
2024-03-10T00:39:40.076Z,19.05
2024-03-10T00:42:07.379Z,20.30
2024-03-10T00:44:34.634Z,21.25
2024-03-10T00:47:01.976Z,21.63
2024-03-10T00:49:29.326Z,21.88
2024-03-10T00:51:56.888Z,21.15
2024-03-10T00:54:24.141Z,21.77
2024-03-10T00:56:51.472Z,21.65
2024-03-10T00:59:18.768Z,23.75
2024-03-10T01:01:46.207Z,20.92
2024-03-10T01:04:15.048Z,22.08
2024-03-10T01:06:43.274Z,20.88
2024-03-10T01:09:11.521Z,21.88
2024-03-10T01:11:41.109Z,20.35
2024-03-10T01:14:08.463Z,20.42
2024-03-10T01:16:35.771Z,21.02
2024-03-10T01:19:03.149Z,20.67
2024-03-10T01:21:30.423Z,21.00
2024-03-10T01:23:57.694Z,19.40
2024-03-10T01:26:25.634Z,19.65
2024-03-10T01:28:53.170Z,21.02
2024-03-10T01:31:20.463Z,23.47
2024-03-10T01:33:49.151Z,18.65
2024-03-10T01:36:16.960Z,19.85
2024-03-10T01:38:44.454Z,19.55
2024-03-10T01:41:13.305Z,21.58
2024-03-10T01:43:44.853Z,20.57
2024-03-10T01:46:12.189Z,20.08
2024-03-10T01:48:40.655Z,21.33
2024-03-10T01:51:08.246Z,19.95
2024-03-10T01:53:35.899Z,20.73
2024-03-10T01:56:05.008Z,19.17
2024-03-10T01:58:33.107Z,19.63
2024-03-10T02:01:05.461Z,19.40
2024-03-10T02:03:33.108Z,18.85
2024-03-10T02:06:00.509Z,17.75
2024-03-10T02:08:30.115Z,16.60
2024-03-10T02:10:57.559Z,17.17
2024-03-10T02:13:24.877Z,18.92
2024-03-10T02:16:01.603Z,15.45
2024-03-10T02:18:29.422Z,16.00
2024-03-10T02:20:57.167Z,17.17
2024-03-10T02:23:25.952Z,17.50
2024-03-10T02:25:54.121Z,16.40
2024-03-10T02:28:37.514Z,15.18
2024-03-10T02:31:26.233Z,15.98
2024-03-10T02:34:12.367Z,16.00
2024-03-10T02:36:58.556Z,16.23
2024-03-10T02:39:44.514Z,17.13
2024-03-10T02:42:30.524Z,17.23
2024-03-10T02:45:16.069Z,15.50
2024-03-10T02:47:44.076Z,16.23
2024-03-10T02:50:11.545Z,14.75
2024-03-10T02:52:38.880Z,16.35
2024-03-10T02:55:07.984Z,18.48
2024-03-10T02:57:35.261Z,15.68
2024-03-10T03:00:02.558Z,15.13
2024-03-10T03:02:30.918Z,16.02
2024-03-10T03:04:58.569Z,15.32
2024-03-10T03:07:25.923Z,15.65
2024-03-10T03:09:53.556Z,15.80
2024-03-10T03:12:20.867Z,15.03
2024-03-10T03:14:48.180Z,14.55
2024-03-10T03:17:15.699Z,15.85
2024-03-10T03:19:43.239Z,15.55
2024-03-10T03:22:11.494Z,14.48
2024-03-10T03:24:38.761Z,15.63
2024-03-10T03:27:06.244Z,14.95
2024-03-10T03:29:33.695Z,15.50
2024-03-10T03:32:01.175Z,15.63
2024-03-10T03:34:28.494Z,13.93
2024-03-10T03:36:55.777Z,14.60
2024-03-10T03:39:23.036Z,15.30
2024-03-10T03:41:50.357Z,14.50
2024-03-10T03:44:19.616Z,13.20
2024-03-10T03:46:47.014Z,13.88
2024-03-10T03:49:15.194Z,14.57
2024-03-10T03:51:44.068Z,15.52
2024-03-10T03:54:11.375Z,13.98
2024-03-10T03:56:38.672Z,14.57
2024-03-10T03:59:06.051Z,13.60
2024-03-10T04:01:35.929Z,14.17
2024-03-10T04:04:03.744Z,14.13
2024-03-10T04:06:31.301Z,13.80
2024-03-10T04:08:59.080Z,14.90
2024-03-10T04:11:26.787Z,14.55
2024-03-10T04:13:54.201Z,15.37
2024-03-10T04:16:21.466Z,14.32
2024-03-10T04:18:50.450Z,14.85
2024-03-10T04:21:18.308Z,15.32
2024-03-10T04:23:45.655Z,15.02
2024-03-10T04:26:13.073Z,15.30
2024-03-10T04:28:40.425Z,14.82
2024-03-10T04:31:07.762Z,15.27
2024-03-10T04:33:36.208Z,14.90
2024-03-10T04:36:03.612Z,14.35
2024-03-10T04:38:31.231Z,14.93
2024-03-10T04:40:58.753Z,14.23
2024-03-10T04:43:26.136Z,14.75
2024-03-10T04:45:54.566Z,15.30
2024-03-10T04:48:21.894Z,15.23
2024-03-10T04:50:49.463Z,16.73
2024-03-10T04:53:16.982Z,15.00
2024-03-10T04:55:45.325Z,16.02
2024-03-10T04:58:12.712Z,14.60
2024-03-10T05:00:40.593Z,14.90
2024-03-10T05:03:08.031Z,14.43
2024-03-10T05:05:35.394Z,15.00
2024-03-10T05:08:02.798Z,14.35
2024-03-10T05:10:30.048Z,15.70
2024-03-10T05:12:57.550Z,14.85
2024-03-10T05:15:24.814Z,15.70
2024-03-10T05:17:52.696Z,16.00
2024-03-10T05:20:22.882Z,16.25
2024-03-10T05:22:50.533Z,16.27
2024-03-10T05:25:17.872Z,15.98
2024-03-10T05:27:46.729Z,16.07
2024-03-10T05:30:14.170Z,16.33
2024-03-10T05:32:41.725Z,17.33
2024-03-10T05:35:10.866Z,17.27
2024-03-10T05:37:38.454Z,17.92
2024-03-10T05:40:07.668Z,17.50
2024-03-10T05:42:35.158Z,19.95
2024-03-10T05:45:03.966Z,18.75
2024-03-10T05:47:31.632Z,20.52
2024-03-10T05:49:59.057Z,19.25
2024-03-10T05:52:27.498Z,18.67
2024-03-10T05:54:54.788Z,18.13
2024-03-10T05:57:22.019Z,18.13
2024-03-10T05:59:49.344Z,17.23
2024-03-10T06:02:17.615Z,17.85
2024-03-10T06:04:46.010Z,16.63
2024-03-10T06:07:13.583Z,16.33
2024-03-10T06:09:41.221Z,17.15
2024-03-10T06:12:08.871Z,16.30
2024-03-10T06:14:36.268Z,15.95
2024-03-10T06:17:05.749Z,16.38
2024-03-10T06:19:51.581Z,16.60
2024-03-10T06:22:37.269Z,16.27
2024-03-10T06:25:23.534Z,15.43
2024-03-10T06:27:52.462Z,15.65
2024-03-10T06:30:22.601Z,15.73
2024-03-10T06:32:51.351Z,15.23
2024-03-10T06:35:19.056Z,16.13
2024-03-10T06:37:47.773Z,15.82
2024-03-10T06:40:15.398Z,15.20
2024-03-10T06:42:45.798Z,16.20
2024-03-10T06:45:14.311Z,16.08
2024-03-10T06:47:42.945Z,17.17
2024-03-10T06:50:11.215Z,15.90
2024-03-10T06:52:39.267Z,16.50
2024-03-10T06:55:07.547Z,16.05
2024-03-10T06:57:35.001Z,16.58
2024-03-10T07:00:02.569Z,16.50
2024-03-10T07:02:30.702Z,15.18
2024-03-10T07:05:02.089Z,15.35
2024-03-10T07:07:30.612Z,14.13
2024-03-10T07:09:57.905Z,14.43
2024-03-10T07:12:25.304Z,13.73
2024-03-10T07:14:52.665Z,14.68
2024-03-10T07:17:20.169Z,14.27
2024-03-10T07:19:47.482Z,15.63
2024-03-10T07:22:14.781Z,14.90
2024-03-10T07:24:42.064Z,14.95
2024-03-10T07:27:10.352Z,15.95
2024-03-10T07:29:38.404Z,14.75
2024-03-10T07:32:07.170Z,16.30
2024-03-10T07:34:34.657Z,15.63
2024-03-10T07:37:02.395Z,15.00
2024-03-10T07:39:29.753Z,14.23
2024-03-10T07:41:58.355Z,13.98
2024-03-10T07:44:26.486Z,14.77
2024-03-10T07:46:54.725Z,15.13
2024-03-10T07:49:22.035Z,14.52
2024-03-10T07:51:49.383Z,13.95
2024-03-10T07:54:16.772Z,14.55
2024-03-10T07:56:44.138Z,15.02
2024-03-10T07:59:12.666Z,15.23
2024-03-10T08:01:40.076Z,14.88
2024-03-10T08:04:07.391Z,14.43
2024-03-10T08:06:34.701Z,15.50
2024-03-10T08:09:04.499Z,15.48
2024-03-10T08:11:32.146Z,14.98
2024-03-10T08:14:00.542Z,15.38
2024-03-10T08:16:28.237Z,19.48
2024-03-10T08:18:55.776Z,18.83
2024-03-10T08:21:24.573Z,17.27
2024-03-10T08:23:51.888Z,14.85
2024-03-10T08:26:19.274Z,15.52
2024-03-10T08:28:48.188Z,14.75
2024-03-10T08:31:15.785Z,14.95
2024-03-10T08:33:43.100Z,14.60
2024-03-10T08:36:10.368Z,15.43
2024-03-10T08:38:38.361Z,15.23
2024-03-10T08:41:06.313Z,13.73
2024-03-10T08:43:34.628Z,14.57
2024-03-10T08:46:03.907Z,13.07
2024-03-10T08:48:31.443Z,13.30
2024-03-10T08:50:58.843Z,14.23
2024-03-10T08:53:26.703Z,13.70
2024-03-10T08:55:55.672Z,13.77
2024-03-10T08:58:23.061Z,13.90
2024-03-10T09:00:51.171Z,12.60
2024-03-10T09:03:18.454Z,12.75
2024-03-10T09:05:48.049Z,12.18
2024-03-10T09:08:15.479Z,13.07
2024-03-10T09:10:52.851Z,12.18
2024-03-10T09:13:25.695Z,13.43
2024-03-10T09:15:52.972Z,13.95
2024-03-10T09:18:20.261Z,14.48
2024-03-10T09:20:47.670Z,13.60
2024-03-10T09:23:15.068Z,12.90
2024-03-10T09:25:43.537Z,13.23
2024-03-10T09:28:10.865Z,12.13
2024-03-10T09:30:38.432Z,12.95
2024-03-10T09:33:10.943Z,12.82
2024-03-10T09:35:38.435Z,11.93
2024-03-10T09:38:06.449Z,12.68
2024-03-10T09:40:34.415Z,13.40
2024-03-10T09:43:08.586Z,13.05
2024-03-10T09:45:41.758Z,12.15
2024-03-10T09:48:11.951Z,12.57
2024-03-10T09:50:45.198Z,11.65
2024-03-10T09:53:13.917Z,11.88
2024-03-10T09:55:42.413Z,12.95
2024-03-10T09:58:18.148Z,12.32
2024-03-10T10:00:51.882Z,11.23
2024-03-10T10:03:19.520Z,11.80
2024-03-10T10:05:56.020Z,11.77
2024-03-10T10:08:24.089Z,12.40
2024-03-10T10:10:51.540Z,11.25
2024-03-10T10:13:23.722Z,12.10
2024-03-10T10:15:53.421Z,12.50
2024-03-10T10:18:22.439Z,12.18
2024-03-10T10:20:50.075Z,12.13
2024-03-10T10:23:17.434Z,11.35
2024-03-10T10:25:46.809Z,12.05
2024-03-10T10:28:14.620Z,11.20
2024-03-10T10:30:43.082Z,12.30
2024-03-10T10:33:15.554Z,11.07
2024-03-10T10:35:49.220Z,12.00
2024-03-10T10:38:16.888Z,12.25
2024-03-10T10:40:49.535Z,11.33
2024-03-10T10:43:21.229Z,11.10
2024-03-10T10:45:49.852Z,11.15
2024-03-10T10:48:21.653Z,10.85
2024-03-10T10:50:49.790Z,11.10
2024-03-10T10:53:17.425Z,11.67
2024-03-10T10:55:46.419Z,10.93
2024-03-10T10:58:18.244Z,11.23
2024-03-10T11:00:54.838Z,12.10
2024-03-10T11:03:30.038Z,11.30
2024-03-10T11:06:03.314Z,10.50
2024-03-10T11:08:34.566Z,11.90
2024-03-10T11:11:02.738Z,11.45
2024-03-10T11:13:30.180Z,10.93
2024-03-10T11:16:19.185Z,10.85
2024-03-10T11:18:46.546Z,11.87
2024-03-10T11:21:19.169Z,11.68
2024-03-10T11:23:47.569Z,13.40
2024-03-10T11:26:19.396Z,12.30
2024-03-10T11:28:57.194Z,11.88
2024-03-10T11:31:24.526Z,11.47
2024-03-10T11:33:52.332Z,11.85
2024-03-10T11:36:23.362Z,11.50
2024-03-10T11:38:51.479Z,11.70
2024-03-10T11:41:22.334Z,11.68
2024-03-10T11:43:50.463Z,11.67
2024-03-10T11:46:37.156Z,10.68
2024-03-10T11:49:04.505Z,10.00
2024-03-10T11:51:34.794Z,10.88
2024-03-10T11:54:05.584Z,12.05
2024-03-10T11:56:35.949Z,11.13
2024-03-10T11:59:05.132Z,11.35
2024-03-10T12:01:32.579Z,11.38
2024-03-10T12:04:10.618Z,10.65
2024-03-10T12:06:38.207Z,10.23
2024-03-10T12:09:14.879Z,11.47
2024-03-10T12:11:43.357Z,11.05
2024-03-10T12:14:12.594Z,10.95
2024-03-10T12:16:40.745Z,11.52
2024-03-10T12:19:08.035Z,10.63
2024-03-10T12:21:37.360Z,10.63
2024-03-10T12:24:05.983Z,11.18
2024-03-10T12:26:33.749Z,10.70
2024-03-10T12:29:01.094Z,10.20
2024-03-10T12:31:30.343Z,10.10
2024-03-10T12:33:58.370Z,10.10
2024-03-10T12:36:25.694Z,10.60
2024-03-10T12:38:54.251Z,16.90
2024-03-10T12:41:24.930Z,11.73
2024-03-10T12:43:56.539Z,10.50
2024-03-10T12:46:24.989Z,10.07
2024-03-10T12:48:54.379Z,10.27
2024-03-10T12:51:22.019Z,9.88
2024-03-10T12:53:49.861Z,10.48
2024-03-10T12:56:17.995Z,9.40
2024-03-10T12:58:46.950Z,10.07
2024-03-10T13:01:17.813Z,10.38
2024-03-10T13:03:45.748Z,9.90
2024-03-10T13:06:15.841Z,10.93
2024-03-10T13:08:44.819Z,9.60
2024-03-10T13:11:15.114Z,11.77
2024-03-10T13:13:44.896Z,10.43
2024-03-10T13:16:13.315Z,10.45
2024-03-10T13:18:44.256Z,9.90
2024-03-10T13:21:11.840Z,11.00
2024-03-10T13:23:39.226Z,9.47
2024-03-10T13:26:06.628Z,9.55
2024-03-10T13:28:34.960Z,9.40
2024-03-10T13:31:03.955Z,9.40
2024-03-10T13:33:31.293Z,9.73
2024-03-10T13:36:06.695Z,10.17
2024-03-10T13:38:41.283Z,10.38
2024-03-10T13:41:10.568Z,10.02
2024-03-10T13:43:44.415Z,9.30
2024-03-10T13:46:13.960Z,10.25
2024-03-10T13:48:42.888Z,9.60
2024-03-10T13:51:10.936Z,9.38
2024-03-10T13:53:38.366Z,10.27
2024-03-10T13:56:06.235Z,9.95
2024-03-10T13:58:33.574Z,9.65
2024-03-10T14:01:00.934Z,9.40
2024-03-10T14:03:28.238Z,10.32
2024-03-10T14:05:55.532Z,10.25
2024-03-10T14:08:22.863Z,10.23
2024-03-10T14:10:50.190Z,10.15
2024-03-10T14:13:17.683Z,10.60
2024-03-10T14:15:45.094Z,10.20
2024-03-10T14:18:14.349Z,10.10
2024-03-10T14:20:41.841Z,10.00
2024-03-10T14:23:09.300Z,9.60
2024-03-10T14:25:39.271Z,10.17
2024-03-10T14:28:07.985Z,10.07
2024-03-10T14:30:35.293Z,9.93
2024-03-10T14:33:04.517Z,9.77
2024-03-10T14:35:32.157Z,10.23
2024-03-10T14:38:00.256Z,9.10
2024-03-10T14:40:27.597Z,9.48
2024-03-10T14:42:56.428Z,9.55
2024-03-10T14:45:23.993Z,8.70
2024-03-10T14:47:52.507Z,9.48
2024-03-10T14:50:24.972Z,9.27
2024-03-10T14:52:56.068Z,8.95
2024-03-10T14:55:24.688Z,9.25
2024-03-10T14:57:52.119Z,9.50
2024-03-10T15:00:38.895Z,9.02
2024-03-10T15:03:12.800Z,9.00
2024-03-10T15:05:41.160Z,9.82
2024-03-10T15:08:10.289Z,8.63
2024-03-10T15:10:37.886Z,8.85
2024-03-10T15:13:08.836Z,8.57
2024-03-10T15:15:36.578Z,9.07
2024-03-10T15:18:04.752Z,9.05
2024-03-10T15:20:32.284Z,9.25
2024-03-10T15:23:02.526Z,9.60
2024-03-10T15:25:35.732Z,9.23
2024-03-10T15:28:04.406Z,10.13
2024-03-10T15:30:31.946Z,9.05
2024-03-10T15:32:59.370Z,9.82
2024-03-10T15:35:26.812Z,9.65
2024-03-10T15:37:54.569Z,9.68
2024-03-10T15:40:22.682Z,9.97
2024-03-10T15:42:50.450Z,10.48
2024-03-10T15:45:18.802Z,10.95
2024-03-10T15:47:49.673Z,10.05
2024-03-10T15:50:20.329Z,10.85
2024-03-10T15:52:51.296Z,11.50
2024-03-10T15:55:22.613Z,10.48
2024-03-10T15:57:50.982Z,11.27
2024-03-10T16:00:22.121Z,11.85
2024-03-10T16:03:00.273Z,11.05
2024-03-10T16:05:35.968Z,10.53
2024-03-10T16:08:07.033Z,12.15
2024-03-10T16:10:35.750Z,11.85
2024-03-10T16:13:07.113Z,12.23
2024-03-10T16:15:37.385Z,11.55
2024-03-10T16:18:07.294Z,11.03
2024-03-10T16:20:35.193Z,11.85
2024-03-10T16:23:03.735Z,12.80
2024-03-10T16:25:31.130Z,11.85
2024-03-10T16:27:58.462Z,11.75
2024-03-10T16:30:27.006Z,11.53
2024-03-10T16:32:56.036Z,11.90
2024-03-10T16:35:23.546Z,11.38
2024-03-10T16:37:53.350Z,11.70
2024-03-10T16:40:20.714Z,12.38
2024-03-10T16:42:48.040Z,11.03
2024-03-10T16:45:17.644Z,11.40
2024-03-10T16:47:46.967Z,11.48
2024-03-10T16:50:25.978Z,11.38
2024-03-10T16:52:55.189Z,15.05
2024-03-10T16:55:24.900Z,11.97
2024-03-10T16:58:01.021Z,11.75
2024-03-10T17:00:31.970Z,12.95
2024-03-10T17:03:06.110Z,13.82
2024-03-10T17:05:37.294Z,13.23
2024-03-10T17:08:06.295Z,15.07
2024-03-10T17:10:33.921Z,15.52
2024-03-10T17:13:01.403Z,19.50
2024-03-10T17:15:29.105Z,26.35
2024-03-10T17:17:56.566Z,32.30
2024-03-10T17:20:25.171Z,18.13
2024-03-10T17:22:52.659Z,15.35
2024-03-10T17:25:19.966Z,14.55
2024-03-10T17:27:47.284Z,17.88
2024-03-10T17:30:17.617Z,14.07
2024-03-10T17:32:49.791Z,12.73
2024-03-10T17:35:20.168Z,14.93
2024-03-10T17:37:47.508Z,14.50
2024-03-10T17:40:15.322Z,14.85
2024-03-10T17:42:42.820Z,15.35
2024-03-10T17:45:12.568Z,12.70
2024-03-10T17:47:40.504Z,11.07
2024-03-10T17:50:09.252Z,10.07
2024-03-10T17:52:36.953Z,10.70
2024-03-10T17:55:10.108Z,10.77
2024-03-10T17:57:37.533Z,10.13
2024-03-10T18:00:06.514Z,10.23
2024-03-10T18:02:34.986Z,10.25
2024-03-10T18:05:04.260Z,10.25
2024-03-10T18:07:33.022Z,10.02
2024-03-10T18:10:01.565Z,9.87
2024-03-10T18:12:29.238Z,9.25
2024-03-10T18:14:56.634Z,12.85
2024-03-10T18:17:24.047Z,16.55
2024-03-10T18:19:51.453Z,12.40
2024-03-10T18:22:19.005Z,10.70
2024-03-10T18:24:46.300Z,10.75
2024-03-10T18:27:14.492Z,11.45
2024-03-10T18:29:42.863Z,11.75
2024-03-10T18:32:10.491Z,11.70
2024-03-10T18:34:39.003Z,11.37
2024-03-10T18:37:06.861Z,10.52
2024-03-10T18:39:34.696Z,11.45
2024-03-10T18:42:02.241Z,10.90
2024-03-10T18:44:29.798Z,10.20
2024-03-10T18:46:58.152Z,9.30
2024-03-10T18:49:29.364Z,11.45
2024-03-10T18:51:56.971Z,11.57
2024-03-10T18:54:26.088Z,11.52
2024-03-10T18:56:53.770Z,14.25
2024-03-10T18:59:21.366Z,15.17
2024-03-10T19:01:49.316Z,16.30
2024-03-10T19:04:16.654Z,11.82
2024-03-10T19:06:45.653Z,11.38
2024-03-10T19:09:19.038Z,11.98
2024-03-10T19:11:46.818Z,13.70
2024-03-10T19:14:14.400Z,13.07
2024-03-10T19:16:41.837Z,11.15
2024-03-10T19:19:10.006Z,11.07
2024-03-10T19:21:39.586Z,10.07
2024-03-10T19:24:07.653Z,11.67
2024-03-10T19:26:35.193Z,10.77
2024-03-10T19:29:03.119Z,10.68
2024-03-10T19:31:30.524Z,10.52
2024-03-10T19:33:57.799Z,11.32
2024-03-10T19:36:26.203Z,11.43
2024-03-10T19:38:54.643Z,12.30
2024-03-10T19:41:22.018Z,14.15
2024-03-10T19:43:50.472Z,13.43
2024-03-10T19:46:18.427Z,12.45
2024-03-10T19:48:45.782Z,12.90
2024-03-10T19:51:13.625Z,11.50
2024-03-10T19:53:41.357Z,12.00
2024-03-10T19:56:08.893Z,12.70
2024-03-10T19:58:36.251Z,11.18
2024-03-10T20:01:03.953Z,12.52
2024-03-10T20:03:31.337Z,12.48
2024-03-10T20:05:59.246Z,12.93
2024-03-10T20:08:26.629Z,12.38
2024-03-10T20:10:53.992Z,11.80
2024-03-10T20:13:21.291Z,11.70
2024-03-10T20:15:48.571Z,11.10
2024-03-10T20:18:16.115Z,11.88
2024-03-10T20:20:45.451Z,12.25
2024-03-10T20:23:13.845Z,12.30
2024-03-10T20:25:41.352Z,12.40
2024-03-10T20:28:08.615Z,12.85
2024-03-10T20:30:35.872Z,13.40
2024-03-10T20:33:03.323Z,17.10
2024-03-10T20:35:30.825Z,18.35
2024-03-10T20:37:58.259Z,16.50
2024-03-10T20:40:25.730Z,13.32
2024-03-10T20:42:53.063Z,13.73
2024-03-10T20:45:20.456Z,12.32
2024-03-10T20:47:51.406Z,14.45
2024-03-10T20:50:24.105Z,17.58
2024-03-10T20:52:53.503Z,18.50
2024-03-10T20:55:21.323Z,16.63
2024-03-10T20:57:48.790Z,17.35
2024-03-10T21:00:20.689Z,17.80
2024-03-10T21:02:49.617Z,18.25
2024-03-10T21:05:18.288Z,17.33
2024-03-10T21:07:45.779Z,17.35
2024-03-10T21:10:16.336Z,16.83
2024-03-10T21:12:47.319Z,17.73
2024-03-10T21:15:15.969Z,18.23
2024-03-10T21:17:43.853Z,17.45
2024-03-10T21:20:14.577Z,18.60
2024-03-10T21:22:42.165Z,19.17
2024-03-10T21:25:10.438Z,19.10
2024-03-10T21:27:48.144Z,17.92
2024-03-10T21:30:21.358Z,17.55
2024-03-10T21:32:49.028Z,16.50
2024-03-10T21:35:17.186Z,17.45
2024-03-10T21:37:44.891Z,19.73
2024-03-10T21:40:13.660Z,18.70
2024-03-10T21:42:41.986Z,18.75
2024-03-10T21:45:10.114Z,19.02
2024-03-10T21:47:41.307Z,18.25
2024-03-10T21:50:11.686Z,18.48
2024-03-10T21:52:40.136Z,19.80
2024-03-10T21:55:08.363Z,18.65
2024-03-10T21:57:35.891Z,18.23
2024-03-10T22:00:12.280Z,18.20
2024-03-10T22:02:39.612Z,19.15
2024-03-10T22:05:07.514Z,19.55
2024-03-10T22:07:35.019Z,20.63
2024-03-10T22:10:02.471Z,20.98
2024-03-10T22:12:29.873Z,22.92
2024-03-10T22:14:57.485Z,23.23
2024-03-10T22:17:24.939Z,23.70
2024-03-10T22:19:52.347Z,22.98
2024-03-10T22:22:20.576Z,24.17
2024-03-10T22:24:47.929Z,18.13
2024-03-10T22:27:15.293Z,17.90
2024-03-10T22:29:45.876Z,21.35
2024-03-10T22:32:13.532Z,22.45
2024-03-10T22:34:40.860Z,19.92
2024-03-10T22:37:08.336Z,19.48
2024-03-10T22:39:35.841Z,16.85
2024-03-10T22:42:03.463Z,17.83
2024-03-10T22:44:36.125Z,16.45
2024-03-10T22:47:07.337Z,15.70
2024-03-10T22:49:34.666Z,16.17
2024-03-10T22:52:01.934Z,15.60
2024-03-10T22:54:29.238Z,14.93
2024-03-10T22:56:56.915Z,15.60
2024-03-10T22:59:26.758Z,15.52
2024-03-10T23:01:54.112Z,14.05
2024-03-10T23:04:23.810Z,14.30
2024-03-10T23:06:51.118Z,15.13
2024-03-10T23:09:22.083Z,17.55
2024-03-10T23:11:49.690Z,22.85
2024-03-10T23:14:17.007Z,22.80
2024-03-10T23:16:44.479Z,22.35
2024-03-10T23:19:11.856Z,21.02
2024-03-10T23:21:39.180Z,21.27
2024-03-10T23:24:10.626Z,22.75
2024-03-10T23:26:37.965Z,21.63
2024-03-10T23:29:05.399Z,22.10
2024-03-10T23:31:32.705Z,22.27
2024-03-10T23:33:59.954Z,21.73
2024-03-10T23:36:27.826Z,21.92
2024-03-10T23:38:55.128Z,21.77
2024-03-10T23:41:22.518Z,22.45
2024-03-10T23:43:49.835Z,22.08
2024-03-10T23:46:18.671Z,22.42
2024-03-10T23:48:46.341Z,22.40
2024-03-10T23:51:13.731Z,22.27
2024-03-10T23:53:41.194Z,20.92
2024-03-10T23:56:10.063Z,21.55
2024-03-10T23:58:37.940Z,21.55
